Barra da Estiva, Brazil
Current Conditions -  °F | °C
As of 10:00 PM on Friday 24 Oct 2014 (Local Time) from SBQV Reporting Station
Broken Clouds Broken Clouds  
Wind Chill: 66°   Ceiling: 800
Heat Index: 66°   Visibility: 6mi
Dew Point: 64°   Wind: 14mph
Humidity: 94%   Direction: 90°E
Pressure: 30.09"   Gusts: NA
Location:  13.63°S, 41.33°W
Report Text: SBQV 250100Z 09012KT 9999 FEW006 BKN008 19/18 Q1019
Loading
Personal Weather Stations






























Interactive Weather Map
Tropical Storm Tracking
New forecast layout! Learn more

10-Day Weather Forecast

Advertisements
Track Severe Weather on mobile